Terminal Aerodrome Forecast
Issued by NWS

Home | Current Version | Previous Version | Text Only | Print | Product List | Glossary On
Versions: 1 2 3 4 5 6 7 8 9 10 11 12 13 14 15 16 17 18 19 20 21 22 23 24 25 26 27 28 29 30 31 32 33 34 35 36 37 38 39 40 41 42 43 44 45 46 47 48 49 50
000
FTUS45 KBOU 040522
TAFAPA
TAF
KAPA 040522Z 0406/0506 19007KT P6SM SCT110 BKN200
     FM040700 34010KT P6SM FEW090 SCT120 BKN200
     FM040900 24008KT P6SM SCT120 SCT200
     FM041100 21006KT P6SM FEW120 SCT200
     FM041800 27011KT P6SM FEW110
     FM042100 31012G20KT P6SM FEW100
     FM050100 35011KT P6SM SKC
     FM050400 24007KT P6SM SKC=

USA.gov is the U.S. government's official web portal to all federal, state and local government web resources and services.